Time;durP1;ratioP1;P1;durP2;ratioP2;P2;SDS_P1;SDS_P2;PMS_P1;PMS_P2;Temp;Humidity;BMP_temperature;BMP_pressure;BME280_temperature;BME280_humidity;BME280_pressure;Samples;Min_cycle;Max_cycle;Signal;HPM_P1;HPM_P2
2022/09/12 00:01:24;;;;;;;6.43;5.82;;;15.00;99.90;;;;;;5077673;28;20044;-78
2022/09/12 00:03:58;;;;;;;6.38;5.78;;;15.30;99.90;;;;;;5077271;28;20056;-78
2022/09/12 00:06:27;;;;;;;8.02;5.95;;;14.90;99.90;;;;;;5077243;28;20056;-78
2022/09/12 00:08:55;;;;;;;6.55;5.70;;;15.00;99.90;;;;;;5076368;28;20143;-78
2022/09/12 00:11:21;;;;;;;6.60;6.00;;;14.90;99.90;;;;;;5077190;28;20071;-78
2022/09/12 00:13:47;;;;;;;6.72;6.00;;;15.30;99.90;;;;;;5076848;28;20489;-78
2022/09/12 00:16:23;;;;;;;7.00;5.97;;;15.10;99.90;;;;;;5076778;28;20055;-78
2022/09/12 00:18:49;;;;;;;6.45;5.70;;;15.00;99.90;;;;;;5076177;28;20398;-78
2022/09/12 00:21:16;;;;;;;6.57;5.97;;;15.20;99.90;;;;;;5076231;28;20048;-78
2022/09/12 00:23:42;;;;;;;7.28;6.20;;;15.20;99.90;;;;;;5077005;28;20048;-77
2022/09/12 00:26:08;;;;;;;6.90;6.18;;;15.00;99.90;;;;;;5076203;28;20384;-77
2022/09/12 00:28:35;;;;;;;6.40;5.80;;;15.10;99.90;;;;;;5076700;28;20131;-77
2022/09/12 00:31:05;;;;;;;6.90;6.25;;;15.10;99.90;;;;;;5075855;28;20083;-78
2022/09/12 00:33:31;;;;;;;7.25;6.47;;;15.10;99.90;;;;;;5077354;28;20427;-78
2022/09/12 00:35:56;;;;;;;9.93;6.57;;;15.20;99.90;;;;;;5058871;28;20048;-78
2022/09/12 00:38:22;;;;;;;7.43;6.72;;;14.90;99.90;;;;;;5077080;28;20037;-77
2022/09/12 00:40:48;;;;;;;7.43;6.25;;;15.20;99.90;;;;;;5075920;28;20051;-77
2022/09/12 00:43:39;;;;;;;8.52;6.28;;;15.10;99.90;;;;;;5076573;28;20055;-77
2022/09/12 00:46:35;;;;;;;8.05;6.95;;;15.00;99.90;;;;;;5058781;28;20071;-78
2022/09/12 00:49:23;;;;;;;8.15;7.35;;;14.90;99.90;;;;;;5076459;28;20127;-77
2022/09/12 00:51:54;;;;;;;8.05;7.28;;;15.00;99.90;;;;;;5069792;28;20643;-78
2022/09/12 00:54:25;;;;;;;8.63;7.65;;;14.80;99.90;;;;;;5075219;28;20590;-78
2022/09/12 00:56:54;;;;;;;9.27;7.53;;;14.70;99.90;;;;;;5076915;28;20036;-77
2022/09/12 00:59:26;;;;;;;7.88;7.07;;;14.90;99.90;;;;;;5076228;28;20142;-78
2022/09/12 01:01:53;;;;;;;8.38;7.57;;;14.80;99.90;;;;;;5076550;28;20049;-78
2022/09/12 01:04:22;;;;;;;9.07;7.57;;;14.80;99.90;;;;;;5058412;28;20045;-78
2022/09/12 01:06:49;;;;;;;8.75;7.95;;;14.90;99.90;;;;;;5076066;28;20053;-78
2022/09/12 01:09:19;;;;;;;8.10;7.30;;;14.70;99.90;;;;;;5076254;28;20394;-78
2022/09/12 01:11:47;;;;;;;8.80;7.90;;;15.00;99.90;;;;;;5092569;28;20148;-78
2022/09/12 01:14:14;;;;;;;9.68;8.65;;;14.80;99.90;;;;;;5076001;28;20055;-78
2022/09/12 01:16:40;;;;;;;9.05;8.02;;;14.70;99.90;;;;;;5075627;28;20057;-78
2022/09/12 01:19:06;;;;;;;9.30;8.30;;;;;;;;;;5075950;28;20045;-77
2022/09/12 01:21:51;;;;;;;9.20;8.30;;;;;;;;;;5075853;28;20102;-77
2022/09/12 01:24:36;;;;;;;9.70;8.70;;;;;;;;;;5074826;28;20472;-78
2022/09/12 01:27:18;;;;;;;11.38;9.43;;;;;;;;;;5074641;28;20098;-77
2022/09/12 01:30:00;;;;;;;10.85;9.02;;;14.40;99.90;;;;;;5074514;28;20477;-77
2022/09/12 01:32:38;;;;;;;10.13;8.88;;;14.50;99.90;;;;;;5076299;28;20083;-77
2022/09/12 01:35:30;;;;;;;9.02;8.05;;;14.40;99.90;;;;;;5058102;28;20068;-78
2022/09/12 01:38:14;;;;;;;9.93;9.03;;;14.70;99.90;;;;;;5075666;28;20056;-77
2022/09/12 01:40:43;;;;;;;10.43;9.32;;;14.50;99.90;;;;;;5075544;28;20045;-77
2022/09/12 01:43:17;;;;;;;10.15;9.15;;;14.40;99.90;;;;;;5074757;28;20045;-77
2022/09/12 01:46:07;;;;;;;9.63;8.68;;;14.60;99.90;;;;;;5075116;28;20177;-78
2022/09/12 01:48:39;;;;;;;10.40;9.30;;;14.30;99.90;;;;;;5074404;28;20068;-77
2022/09/12 01:51:15;;;;;;;9.70;8.80;;;14.30;99.90;;;;;;5075882;28;20045;-78
2022/09/12 01:53:47;;;;;;;10.68;9.63;;;14.20;99.90;;;;;;5075297;28;20084;-77
2022/09/12 01:56:27;;;;;;;10.30;9.00;;;14.40;99.90;;;;;;5074885;28;20075;-78
2022/09/12 01:59:07;;;;;;;11.40;10.18;;;14.20;99.90;;;;;;5074211;28;20472;-77
2022/09/12 02:01:40;;;;;;;10.70;9.55;;;14.20;99.90;;;;;;5074210;28;20056;-77
2022/09/12 02:04:19;;;;;;;10.50;9.40;;;14.20;99.90;;;;;;5075123;28;20078;-78
2022/09/12 02:06:51;;;;;;;10.32;9.27;;;14.20;99.90;;;;;;5073724;28;20086;-78
2022/09/12 02:09:33;;;;;;;12.25;10.63;;;14.20;99.90;;;;;;5073738;28;20049;-77
2022/09/12 02:12:00;;;;;;;11.73;10.27;;;14.20;99.90;;;;;;5074428;28;20055;-79
2022/09/12 02:14:45;;;;;;;12.23;10.60;;;14.30;99.90;;;;;;5074178;28;20041;-78
2022/09/12 02:17:19;;;;;;;12.10;10.70;;;14.20;99.90;;;;;;5074829;28;20044;-78
2022/09/12 02:19:58;;;;;;;11.48;10.27;;;14.10;99.90;;;;;;5075083;28;20048;-78
2022/09/12 02:22:26;;;;;;;11.98;10.70;;;14.30;99.90;;;;;;5074830;28;20094;-78
2022/09/12 02:24:55;;;;;;;11.82;10.35;;;13.90;99.90;;;;;;5074860;28;20060;-78
2022/09/12 02:27:45;;;;;;;12.98;11.35;;;14.30;99.90;;;;;;5057876;28;20052;-78
2022/09/12 02:30:15;;;;;;;11.98;10.68;;;14.20;99.90;;;;;;5073229;28;20119;-78
2022/09/12 02:32:44;;;;;;;13.35;11.93;;;14.00;99.90;;;;;;5073381;28;20044;-78
2022/09/12 02:35:27;;;;;;;15.20;11.68;;;14.20;99.90;;;;;;5073245;28;20051;-78
2022/09/12 02:38:06;;;;;;;12.63;11.13;;;14.30;99.90;;;;;;5073736;28;20079;-78
2022/09/12 02:40:33;;;;;;;16.30;12.25;;;14.10;99.90;;;;;;5074463;28;20055;-78
2022/09/12 02:43:00;;;;;;;14.75;11.80;;;13.90;99.90;;;;;;5072959;28;20052;-78
2022/09/12 02:45:26;;;;;;;15.25;12.02;;;14.00;99.90;;;;;;5072840;28;20497;-78
2022/09/12 02:48:05;;;;;;;13.57;11.88;;;14.30;99.90;;;;;;5073096;28;20060;-78
2022/09/12 02:50:31;;;;;;;14.93;12.68;;;14.00;99.90;;;;;;5074964;28;20044;-78
2022/09/12 02:53:03;;;;;;;15.02;12.00;;;14.10;99.90;;;;;;5072945;28;20086;-78
2022/09/12 02:55:34;;;;;;;14.27;12.07;;;14.00;99.90;;;;;;5074457;28;20098;-77
2022/09/12 02:58:06;;;;;;;17.45;12.70;;;14.00;99.90;;;;;;5073445;28;20052;-77
2022/09/12 03:00:38;;;;;;;14.27;12.80;;;14.10;99.90;;;;;;5074013;28;20246;-77
2022/09/12 03:03:25;;;;;;;15.27;12.30;;;14.10;99.90;;;;;;5056375;28;20052;-78
2022/09/12 03:05:59;;;;;;;15.50;13.18;;;14.00;99.90;;;;;;5072910;28;20293;-78
2022/09/12 03:09:00;;;;;;;16.08;13.15;;;14.20;99.90;;;;;;5073842;28;20135;-77
2022/09/12 03:11:41;;;;;;;15.73;13.45;;;13.90;99.90;;;;;;5073178;28;20063;-77
2022/09/12 03:14:40;;;;;;;17.75;13.85;;;14.00;99.90;;;;;;5073967;28;20044;-78
2022/09/12 03:17:37;;;;;;;16.50;14.00;;;13.90;99.90;;;;;;5073828;28;20070;-78
2022/09/12 03:20:24;;;;;;;17.10;15.07;;;13.90;99.90;;;;;;5073915;28;20131;-78
2022/09/12 03:22:55;;;;;;;18.00;14.93;;;14.10;99.90;;;;;;5073002;28;20190;-78
2022/09/12 03:25:29;;;;;;;16.33;14.13;;;14.00;99.90;;;;;;5072699;28;20044;-78
2022/09/12 03:28:00;;;;;;;17.52;13.93;;;14.10;99.90;;;;;;5073747;28;20056;-78
2022/09/12 03:30:26;;;;;;;21.17;15.20;;;14.20;99.90;;;;;;5056068;28;20139;-78
2022/09/12 03:32:53;;;;;;;18.27;15.20;;;13.80;99.90;;;;;;5055891;28;20135;-78
2022/09/12 03:35:21;;;;;;;17.52;14.63;;;13.90;99.90;;;;;;5073579;28;20489;-78
2022/09/12 03:37:49;;;;;;;20.15;16.48;;;13.90;99.90;;;;;;5072752;28;20060;-78
2022/09/12 03:40:14;;;;;;;19.17;15.38;;;13.90;99.90;;;;;;5072574;28;20044;-78
2022/09/12 03:42:41;;;;;;;19.90;15.25;;;13.80;99.90;;;;;;5073306;28;20154;-79
2022/09/12 03:45:07;;;;;;;20.17;15.30;;;14.00;99.90;;;;;;5072247;28;20091;-78
2022/09/12 03:47:33;;;;;;;20.95;16.52;;;14.00;99.90;;;;;;5073416;28;20052;-78
2022/09/12 03:49:59;;;;;;;20.88;15.27;;;14.40;99.90;;;;;;5073377;28;20044;-78
2022/09/12 03:52:25;;;;;;;18.33;15.25;;;14.00;99.90;;;;;;5073397;28;20127;-79
2022/09/12 03:54:51;;;;;;;17.38;15.13;;;13.80;99.90;;;;;;5073044;28;20415;-78
2022/09/12 03:57:17;;;;;;;20.75;15.40;;;13.90;99.90;;;;;;5072687;28;20045;-78
2022/09/12 03:59:42;;;;;;;21.80;17.20;;;13.90;99.90;;;;;;5073433;28;20075;-78
2022/09/12 04:02:12;;;;;;;23.75;18.52;;;13.70;99.90;;;;;;5073374;28;20048;-78
2022/09/12 04:04:42;;;;;;;22.45;16.77;;;14.10;99.90;;;;;;5073235;28;20055;-78
2022/09/12 04:07:08;;;;;;;20.65;16.30;;;13.60;99.90;;;;;;5072272;28;20091;-78
2022/09/12 04:09:34;;;;;;;19.52;15.48;;;13.80;99.90;;;;;;5071729;28;20053;-78
2022/09/12 04:12:00;;;;;;;19.83;16.50;;;13.80;99.90;;;;;;5073957;28;20044;-78
2022/09/12 04:14:25;;;;;;;21.58;16.65;;;13.70;99.90;;;;;;5072209;28;20461;-78
2022/09/12 04:16:51;;;;;;;23.02;16.88;;;13.80;99.90;;;;;;5073003;28;20041;-78
2022/09/12 04:19:17;;;;;;;23.50;18.08;;;14.00;99.90;;;;;;5073210;28;20131;-78
2022/09/12 04:21:43;;;;;;;23.50;17.33;;;13.70;99.90;;;;;;5073664;28;20473;-78
2022/09/12 04:24:08;;;;;;;22.27;17.27;;;13.70;99.90;;;;;;5071917;28;20512;-78
2022/09/12 04:26:34;;;;;;;21.15;17.75;;;13.80;99.90;;;;;;5073108;28;20231;-79
2022/09/12 04:29:00;;;;;;;22.63;16.92;;;13.90;99.90;;;;;;5071953;28;20040;-79
2022/09/12 04:31:26;;;;;;;23.50;16.98;;;13.90;99.90;;;;;;5072407;28;20080;-79
2022/09/12 04:33:59;;;;;;;23.13;17.67;;;13.70;99.90;;;;;;5074777;28;20376;-78
2022/09/12 04:36:27;;;;;;;22.35;17.15;;;13.70;99.90;;;;;;5075766;28;20401;-78
2022/09/12 04:38:53;;;;;;;23.83;17.45;;;13.70;99.90;;;;;;5076707;28;20149;-78
2022/09/12 04:41:30;;;;;;;24.73;18.00;;;13.60;99.90;;;;;;5076647;28;20075;-79
2022/09/12 04:44:01;;;;;;;24.15;17.83;;;13.70;99.90;;;;;;5075936;28;20123;-78
2022/09/12 04:46:29;;;;;;;24.38;17.95;;;13.60;99.90;;;;;;5075438;28;20094;-78
2022/09/12 04:48:55;;;;;;;23.42;17.70;;;13.90;99.90;;;;;;5076416;28;20084;-78
2022/09/12 04:51:32;;;;;;;24.77;18.30;;;13.70;99.90;;;;;;5076475;28;20048;-78
2022/09/12 04:54:01;;;;;;;24.17;17.90;;;13.50;99.90;;;;;;5075098;28;20071;-78
2022/09/12 04:56:28;;;;;;;24.90;18.23;;;13.50;99.90;;;;;;5076317;28;20044;-78
2022/09/12 04:59:00;;;;;;;25.45;17.85;;;13.50;99.90;;;;;;5076315;28;20050;-78
2022/09/12 05:01:27;;;;;;;24.60;18.23;;;13.70;99.90;;;;;;5058872;28;20144;-78
2022/09/12 05:03:54;;;;;;;26.42;18.33;;;13.70;99.90;;;;;;5075238;28;20043;-78
2022/09/12 05:06:21;;;;;;;29.83;20.13;;;13.70;99.90;;;;;;5074775;28;20094;-78
2022/09/12 05:08:47;;;;;;;27.25;19.05;;;13.70;99.90;;;;;;5075132;28;20126;-78
2022/09/12 05:11:16;;;;;;;30.23;20.40;;;13.70;99.90;;;;;;5074919;28;20160;-78
2022/09/12 05:13:42;;;;;;;24.48;18.23;;;13.70;99.90;;;;;;5075131;28;20083;-78
2022/09/12 05:16:10;;;;;;;27.48;19.25;;;13.70;99.90;;;;;;5074986;28;20080;-78
2022/09/12 05:18:36;;;;;;;28.65;20.10;;;13.70;99.90;;;;;;5076340;28;20048;-78
2022/09/12 05:21:05;;;;;;;29.13;19.45;;;13.90;99.90;;;;;;5074754;28;20040;-78
2022/09/12 05:23:31;;;;;;;28.33;19.48;;;13.80;99.90;;;;;;5075979;28;20041;-78
2022/09/12 05:25:57;;;;;;;27.30;19.20;;;13.80;99.90;;;;;;5075830;28;20045;-78
2022/09/12 05:28:27;;;;;;;31.27;19.00;;;14.00;99.90;;;;;;5074657;28;20084;-78
2022/09/12 05:31:11;;;;;;;28.38;20.35;;;13.80;99.90;;;;;;5075085;28;20048;-78
2022/09/12 05:33:38;;;;;;;28.15;20.30;;;13.70;99.90;;;;;;5075746;28;20078;-78
2022/09/12 05:36:06;;;;;;;30.02;20.20;;;13.90;99.90;;;;;;5058003;28;20052;-78
2022/09/12 05:38:34;;;;;;;30.70;20.58;;;14.00;99.90;;;;;;5075649;28;20040;-78
2022/09/12 05:41:11;;;;;;;32.45;21.73;;;14.20;99.90;;;;;;5057791;28;20044;-78
2022/09/12 05:43:38;;;;;;;29.80;21.40;;;14.10;99.90;;;;;;5075915;28;20052;-78
2022/09/12 05:46:07;;;;;;;30.15;21.58;;;14.20;99.90;;;;;;5072965;28;20400;-78
2022/09/12 05:48:34;;;;;;;32.25;22.17;;;14.50;99.90;;;;;;5075113;28;20079;-78
2022/09/12 05:51:02;;;;;;;29.98;21.00;;;14.30;99.90;;;;;;5074359;28;20057;-78
2022/09/12 05:53:31;;;;;;;31.38;20.83;;;14.50;99.90;;;;;;5074305;28;20441;-78
2022/09/12 05:56:08;;;;;;;29.55;19.88;;;14.70;99.90;;;;;;5075227;28;20048;-78
2022/09/12 05:58:36;;;;;;;30.25;21.08;;;14.50;99.90;;;;;;5057469;28;20502;-78
2022/09/12 06:01:16;;;;;;;33.90;21.83;;;14.60;99.90;;;;;;5075041;28;20480;-78
2022/09/12 06:03:50;;;;;;;28.35;20.27;;;14.60;99.90;;;;;;5075074;28;20041;-78
2022/09/12 06:06:19;;;;;;;29.50;20.65;;;14.70;99.90;;;;;;5057131;28;20057;-79
2022/09/12 06:08:47;;;;;;;36.38;21.88;;;14.90;99.90;;;;;;5074705;28;20512;-77
2022/09/12 06:11:15;;;;;;;32.47;20.35;;;14.80;99.90;;;;;;5074912;28;20053;-78
2022/09/12 06:13:42;;;;;;;32.28;21.27;;;14.80;99.90;;;;;;5074898;28;20086;-77
2022/09/12 06:16:10;;;;;;;34.28;21.48;;;14.80;99.90;;;;;;5073171;28;20083;-78
2022/09/12 06:18:37;;;;;;;30.77;21.90;;;14.80;99.90;;;;;;5074750;28;20059;-77
2022/09/12 06:21:12;;;;;;;31.52;21.35;;;14.80;99.90;;;;;;5074706;28;20238;-78
2022/09/12 06:23:39;;;;;;;30.15;19.83;;;15.10;99.90;;;;;;5074737;28;20044;-78
2022/09/12 06:26:06;;;;;;;29.80;21.05;;;14.90;99.90;;;;;;5074635;28;20469;-78
2022/09/12 06:28:35;;;;;;;31.08;21.35;;;15.00;99.90;;;;;;5073486;28;20048;-78
2022/09/12 06:31:06;;;;;;;33.80;21.30;;;14.90;99.90;;;;;;5074538;28;20048;-78
2022/09/12 06:33:36;;;;;;;30.33;21.67;;;15.20;99.90;;;;;;5074475;28;20040;-78
2022/09/12 06:36:15;;;;;;;29.65;20.25;;;15.30;99.90;;;;;;5073428;28;20557;-78
2022/09/12 06:38:41;;;;;;;30.90;20.90;;;15.10;99.90;;;;;;5073113;28;20049;-78
2022/09/12 06:41:11;;;;;;;28.77;20.83;;;15.10;99.90;;;;;;5074445;28;20085;-78
2022/09/12 06:43:37;;;;;;;32.63;21.35;;;15.40;99.90;;;;;;5074350;28;20396;-78
2022/09/12 06:46:04;;;;;;;31.92;21.50;;;15.00;99.90;;;;;;5072701;28;20366;-78
2022/09/12 06:48:29;;;;;;;30.83;21.88;;;15.10;99.90;;;;;;5074724;28;20098;-78
2022/09/12 06:51:03;;;;;;;32.47;22.95;;;15.40;99.90;;;;;;5074156;28;20135;-78
2022/09/12 06:53:29;;;;;;;31.40;21.92;;;15.40;99.90;;;;;;5074133;28;20044;-78
2022/09/12 06:55:57;;;;;;;29.50;20.88;;;15.40;99.90;;;;;;5073904;28;20124;-78
2022/09/12 06:58:23;;;;;;;32.25;21.90;;;15.50;99.90;;;;;;5073223;28;20072;-78
2022/09/12 07:00:49;;;;;;;28.88;20.30;;;15.20;99.90;;;;;;5073964;28;20044;-78
2022/09/12 07:03:15;;;;;;;32.50;20.90;;;15.40;99.90;;;;;;5073880;28;20048;-78
2022/09/12 07:05:41;;;;;;;33.00;21.80;;;15.50;99.90;;;;;;5056631;28;20083;-78
2022/09/12 07:08:07;;;;;;;32.63;22.33;;;15.50;99.90;;;;;;5074049;28;20102;-78
2022/09/12 07:10:32;;;;;;;33.97;22.42;;;15.50;99.90;;;;;;5072680;28;20056;-78
2022/09/12 07:12:58;;;;;;;35.95;22.50;;;15.30;99.90;;;;;;5073066;28;20097;-78
2022/09/12 07:15:24;;;;;;;32.80;22.48;;;15.50;99.90;;;;;;5073784;28;20097;-78
2022/09/12 07:17:49;;;;;;;35.30;23.17;;;15.50;99.90;;;;;;5074024;28;20098;-78
2022/09/12 07:20:15;;;;;;;34.10;23.17;;;15.60;99.90;;;;;;5073898;28;20040;-78
2022/09/12 07:22:41;;;;;;;34.83;21.02;;;15.70;99.90;;;;;;5056054;28;20472;-78
2022/09/12 07:25:07;;;;;;;33.30;22.92;;;15.60;99.90;;;;;;5056145;28;20503;-79
2022/09/12 07:27:33;;;;;;;33.92;22.88;;;16.10;99.90;;;;;;5072711;28;20123;-77
2022/09/12 07:29:59;;;;;;;34.90;23.15;;;15.70;99.90;;;;;;5072405;28;20580;-78
2022/09/12 07:32:25;;;;;;;34.78;23.02;;;15.90;99.90;;;;;;5072575;28;20378;-77
2022/09/12 07:34:51;;;;;;;38.60;24.67;;;16.00;99.90;;;;;;5073588;28;20076;-78
2022/09/12 07:37:17;;;;;;;38.13;24.75;;;15.70;99.90;;;;;;5072844;28;20041;-77
2022/09/12 07:39:42;;;;;;;36.33;23.95;;;16.10;99.90;;;;;;5073408;28;20051;-78
2022/09/12 07:42:10;;;;;;;41.80;25.48;;;16.30;99.90;;;;;;5073471;28;20123;-78
2022/09/12 07:44:35;;;;;;;35.92;23.63;;;16.20;99.90;;;;;;5074488;28;20059;-78
2022/09/12 07:47:01;;;;;;;37.67;24.15;;;16.00;99.90;;;;;;5073005;28;20397;-78
2022/09/12 07:49:27;;;;;;;37.63;23.67;;;16.30;99.90;;;;;;5073460;28;20040;-77
2022/09/12 07:51:53;;;;;;;37.90;24.50;;;16.20;99.90;;;;;;5073504;28;20053;-78
2022/09/12 07:54:18;;;;;;;34.22;22.85;;;16.20;99.90;;;;;;5073529;28;20121;-77
2022/09/12 07:56:44;;;;;;;34.90;23.02;;;16.20;99.90;;;;;;5072246;28;20449;-78
2022/09/12 07:59:10;;;;;;;34.47;23.20;;;16.20;99.90;;;;;;5072242;28;20123;-79
2022/09/12 08:01:36;;;;;;;39.53;24.35;;;16.30;99.90;;;;;;5073558;28;20049;-79
2022/09/12 08:04:03;;;;;;;36.55;23.75;;;16.40;99.90;;;;;;5073508;28;20094;-80
2022/09/12 08:06:30;;;;;;;35.38;23.85;;;16.40;99.90;;;;;;5073204;28;20088;-77
2022/09/12 08:08:58;;;;;;;34.38;23.73;;;16.30;99.90;;;;;;5073772;28;20522;-79
2022/09/12 08:11:26;;;;;;;34.20;22.75;;;16.40;99.90;;;;;;5059793;28;20135;-79
2022/09/12 08:13:54;;;;;;;35.08;23.15;;;16.60;99.90;;;;;;5077545;28;20049;-79
2022/09/12 08:16:23;;;;;;;36.60;23.60;;;16.40;99.90;;;;;;5077045;28;20095;-79
2022/09/12 08:18:49;;;;;;;35.72;23.65;;;16.50;99.90;;;;;;5076197;28;20041;-78
2022/09/12 08:21:20;;;;;;;35.88;24.27;;;16.60;99.90;;;;;;5077177;28;20062;-78
2022/09/12 08:23:50;;;;;;;35.67;23.85;;;16.70;99.90;;;;;;5076107;28;20578;-77
2022/09/12 08:26:15;;;;;;;35.65;23.20;;;16.50;99.90;;;;;;5076052;28;20094;-79
2022/09/12 08:28:44;;;;;;;36.85;23.50;;;16.70;99.90;;;;;;5077195;28;20040;-79
2022/09/12 08:31:13;;;;;;;31.75;22.05;;;16.90;99.90;;;;;;5076023;28;20041;-76
2022/09/12 08:33:38;;;;;;;32.38;21.17;;;16.90;99.90;;;;;;5076369;28;20045;-75
2022/09/12 08:36:15;;;;;;;31.25;20.92;;;16.90;99.90;;;;;;5076377;28;20044;-74
2022/09/12 08:38:43;;;;;;;28.25;19.30;;;17.00;99.90;;;;;;5082174;28;20063;-75
2022/09/12 08:41:22;;;;;;;28.50;19.00;;;17.00;99.90;;;;;;5076248;28;20055;-75
2022/09/12 08:44:04;;;;;;;33.00;19.05;;;17.30;99.90;;;;;;5074209;28;20052;-75
2022/09/12 08:46:49;;;;;;;26.40;17.90;;;17.10;99.90;;;;;;5075299;28;20041;-76
2022/09/12 08:49:32;;;;;;;25.80;17.52;;;16.90;99.90;;;;;;5055562;28;20040;-75
2022/09/12 08:52:04;;;;;;;23.63;16.02;;;17.20;99.90;;;;;;5072996;28;20123;-76
2022/09/12 08:54:31;;;;;;;24.27;16.70;;;17.30;99.90;;;;;;5075168;28;20123;-76
2022/09/12 08:57:01;;;;;;;19.55;14.27;;;17.50;99.90;;;;;;5075025;28;20080;-77
2022/09/12 08:59:43;;;;;;;22.65;15.15;;;17.50;99.90;;;;;;5076067;28;20037;-75
2022/09/12 09:02:41;;;;;;;26.27;14.60;;;17.50;99.90;;;;;;5075405;28;20056;-77
2022/09/12 09:05:18;;;;;;;25.27;14.93;;;17.50;99.90;;;;;;5053165;28;20052;-79
2022/09/12 09:08:16;;;;;;;21.02;14.88;;;17.20;99.90;;;;;;5069850;28;20381;-76
2022/09/12 09:11:02;;;;;;;19.15;13.60;;;17.20;99.90;;;;;;5070358;28;20056;-76
2022/09/12 09:16:36;;;;;;;17.70;13.10;;;17.50;99.90;;;;;;5071374;28;20052;-79
2022/09/12 09:19:16;;;;;;;16.88;12.63;;;17.70;99.90;;;;;;5069982;28;20052;-77
2022/09/12 09:21:42;;;;;;;14.90;12.00;;;17.60;99.90;;;;;;5066919;28;20048;-79
2022/09/12 09:24:16;;;;;;;15.50;10.60;;;18.00;99.90;;;;;;5071700;28;20044;-78
2022/09/12 09:26:52;;;;;;;15.32;10.05;;;17.60;99.90;;;;;;5068163;28;20075;-79
2022/09/12 09:29:25;;;;;;;12.90;10.23;;;18.00;99.90;;;;;;5068493;28;20511;-78
2022/09/12 09:31:54;;;;;;;14.75;10.30;;;17.90;99.90;;;;;;5068821;28;20056;-79
2022/09/12 09:34:28;;;;;;;14.55;9.85;;;18.00;99.90;;;;;;5068501;28;20044;-83
2022/09/12 09:37:24;;;;;;;15.07;10.25;;;18.20;99.90;;;;;;5063702;28;20098;-82
2022/09/12 09:40:27;;;;;;;14.45;11.18;;;18.00;99.90;;;;;;5070210;28;20044;-78
2022/09/12 09:43:09;;;;;;;14.82;10.30;;;17.90;99.90;;;;;;5069701;28;20408;-78
2022/09/12 09:45:36;;;;;;;14.05;9.95;;;18.30;99.90;;;;;;5067841;28;20045;-80
2022/09/12 09:48:19;;;;;;;13.55;9.98;;;18.10;99.90;;;;;;5069745;28;20123;-79
2022/09/12 09:50:46;;;;;;;;;;;18.10;99.90;;;;;;5052153;28;20051;-80
2022/09/12 09:53:43;;;;;;;13.15;9.68;;;18.40;99.90;;;;;;5066826;28;19960;-83
2022/09/12 09:56:18;;;;;;;14.60;9.57;;;18.50;99.90;;;;;;5070536;28;20499;-78
2022/09/12 09:58:44;;;;;;;13.55;9.90;;;18.30;99.90;;;;;;5067647;28;20044;-78
2022/09/12 10:01:16;;;;;;;13.60;9.63;;;18.40;99.90;;;;;;5068485;28;20067;-82
2022/09/12 10:03:50;;;;;;;;;;;18.60;99.90;;;;;;5064715;28;20080;-85
2022/09/12 10:06:19;;;;;;;14.77;10.00;;;18.60;99.90;;;;;;5067977;28;20322;-79
2022/09/12 10:08:47;;;;;;;15.02;10.88;;;18.20;99.90;;;;;;5063079;28;20060;-78
2022/09/12 10:11:21;;;;;;;15.63;10.30;;;18.60;99.90;;;;;;5066175;28;20627;-79
2022/09/12 10:13:52;;;;;;;16.42;12.20;;;18.60;99.90;;;;;;5049570;28;20052;-88
2022/09/12 10:16:20;;;;;;;18.25;13.25;;;18.40;99.90;;;;;;5067358;28;20048;-84
2022/09/12 10:18:48;;;;;;;19.55;13.00;;;18.40;99.90;;;;;;5065234;28;20598;-81
2022/09/12 10:21:29;;;;;;;20.35;14.90;;;18.50;99.90;;;;;;5064533;28;20055;-81
2022/09/12 10:24:20;;;;;;;20.50;13.50;;;18.30;99.90;;;;;;5062101;28;20044;-77
2022/09/12 10:27:12;;;;;;;21.40;15.82;;;18.50;99.90;;;;;;5042996;28;20067;-77
2022/09/12 10:29:50;;;;;;;22.80;17.05;;;18.40;99.90;;;;;;5054716;28;20558;-80
2022/09/12 10:32:24;;;;;;;21.85;14.95;;;18.70;99.90;;;;;;5049137;28;20129;-79
2022/09/12 10:34:55;;;;;;;24.88;16.50;;;18.60;99.90;;;;;;5067085;28;20071;-78
2022/09/12 10:37:31;;;;;;;24.20;16.00;;;18.50;99.90;;;;;;5067237;28;20091;-79
2022/09/12 10:39:58;;;;;;;26.10;17.85;;;19.00;99.90;;;;;;5063416;28;20054;-78
2022/09/12 10:42:44;;;;;;;29.67;18.65;;;19.00;99.90;;;;;;5049206;28;20496;-79
2022/09/12 10:45:37;;;;;;;27.85;19.25;;;18.90;99.90;;;;;;5066967;28;20497;-82
2022/09/12 10:48:30;;;;;;;26.20;17.52;;;19.00;99.90;;;;;;5064215;28;20048;-84
2022/09/12 10:50:57;;;;;;;27.48;17.17;;;19.10;99.90;;;;;;5066536;28;20166;-80
2022/09/12 10:53:26;;;;;;;26.27;17.55;;;19.00;99.90;;;;;;5067998;28;20088;-78
2022/09/12 10:56:10;;;;;;;27.23;18.25;;;19.10;99.90;;;;;;5067170;28;20044;-76
2022/09/12 10:58:55;;;;;;;28.63;18.20;;;19.20;99.90;;;;;;5061980;28;20120;-77
2022/09/12 11:01:40;;;;;;;24.30;16.52;;;19.40;99.90;;;;;;5063870;28;20444;-76
2022/09/12 11:04:32;;;;;;;26.17;18.02;;;19.10;99.90;;;;;;5065423;28;20048;-75
2022/09/12 11:07:17;;;;;;;23.35;16.27;;;19.20;99.90;;;;;;5033815;28;20059;-76
2022/09/12 11:10:05;;;;;;;23.63;15.45;;;19.40;99.90;;;;;;5063780;28;20455;-79
2022/09/12 11:12:37;;;;;;;20.35;13.88;;;19.20;99.90;;;;;;5064740;28;20977;-79
2022/09/12 11:15:37;;;;;;;18.25;12.73;;;19.50;99.90;;;;;;5065406;28;20060;-75
2022/09/12 11:18:27;;;;;;;24.58;15.82;;;19.50;99.90;;;;;;5027857;28;20048;-77
2022/09/12 11:21:24;;;;;;;23.77;15.10;;;19.50;99.90;;;;;;5067165;28;20131;-80
2022/09/12 11:24:22;;;;;;;19.63;12.90;;;19.50;99.90;;;;;;5069780;28;20049;-77
2022/09/12 11:27:11;;;;;;;19.10;12.00;;;19.70;99.90;;;;;;5065244;28;20048;-77
2022/09/12 11:29:38;;;;;;;22.40;13.82;;;;;;;;;;5066552;28;20044;-82
2022/09/12 11:32:22;;;;;;;21.27;13.98;;;;;;;;;;5067660;28;20044;-82
2022/09/12 11:35:07;;;;;;;20.13;12.52;;;;;;;;;;5065281;28;20040;-76
2022/09/12 11:37:52;;;;;;;18.60;12.13;;;;;;;;;;5048320;28;20044;-78
2022/09/12 11:40:21;;;;;;;19.02;12.27;;;;;;;;;;5065606;28;20048;-76
2022/09/12 11:42:50;;;;;;;19.58;11.77;;;;;;;;;;5067233;28;20052;-76
2022/09/12 11:45:24;;;;;;;21.15;12.48;;;;;;;;;;5052290;28;20142;-77
2022/09/12 11:47:56;;;;;;;23.30;13.80;;;20.30;99.90;;;;;;5068031;28;20063;-80
2022/09/12 11:50:31;;;;;;;21.30;13.20;;;20.20;99.90;;;;;;5066865;28;20040;-79
2022/09/12 11:53:28;;;;;;;17.27;11.30;;;20.40;99.90;;;;;;5066981;28;20054;-76
2022/09/12 11:56:04;;;;;;;19.50;11.93;;;20.50;99.90;;;;;;5061476;28;20052;-82
2022/09/12 11:58:30;;;;;;;18.90;11.63;;;20.40;99.90;;;;;;5064852;28;20391;-80
2022/09/12 12:01:05;;;;;;;18.17;12.07;;;20.40;99.90;;;;;;5065137;28;20044;-76
2022/09/12 12:03:43;;;;;;;18.27;11.57;;;20.40;99.90;;;;;;5067709;28;20036;-75
2022/09/12 12:06:25;;;;;;;14.73;9.45;;;20.40;99.90;;;;;;5071395;28;20049;-76
2022/09/12 12:08:51;;;;;;;17.00;10.38;;;20.70;99.90;;;;;;5072304;28;20080;-76
2022/09/12 12:11:31;;;;;;;13.95;9.45;;;20.50;99.90;;;;;;5072996;28;20112;-76
2022/09/12 12:14:02;;;;;;;15.65;10.32;;;20.70;99.90;;;;;;5070094;28;20041;-76
2022/09/12 12:16:32;;;;;;;13.15;8.50;;;20.60;99.90;;;;;;5069351;28;20040;-76
2022/09/12 12:19:05;;;;;;;14.43;9.02;;;20.50;99.90;;;;;;5072003;28;20036;-76
2022/09/12 12:21:46;;;;;;;10.88;7.18;;;20.60;99.90;;;;;;5069208;28;20045;-76
2022/09/12 12:24:27;;;;;;;12.15;8.00;;;20.80;99.90;;;;;;5064948;28;20447;-81
2022/09/12 12:26:57;;;;;;;10.23;7.10;;;20.90;99.90;;;;;;5064659;28;20040;-81
2022/09/12 12:29:42;;;;;;;11.20;7.28;;;20.60;99.90;;;;;;5068054;28;20044;-74
2022/09/12 12:32:08;;;;;;;14.25;9.23;;;20.90;99.90;;;;;;5062521;28;20048;-75
2022/09/12 12:34:39;;;;;;;14.60;7.47;;;21.10;99.90;;;;;;5070937;28;20063;-76
2022/09/12 12:37:28;;;;;;;12.35;7.32;;;21.00;99.90;;;;;;5071974;28;20159;-79
2022/09/12 12:40:19;;;;;;;13.65;8.07;;;20.90;99.90;;;;;;5069586;28;20049;-76
2022/09/12 12:42:45;;;;;;;14.55;7.80;;;21.00;99.90;;;;;;5070763;28;20522;-76
2022/09/12 12:45:17;;;;;;;15.15;8.05;;;21.10;99.90;;;;;;5071618;28;20123;-76
2022/09/12 12:47:49;;;;;;;14.00;8.75;;;21.10;99.90;;;;;;5072050;28;20041;-75
2022/09/12 12:50:15;;;;;;;13.90;7.78;;;21.20;99.90;;;;;;5070171;28;20063;-70
2022/09/12 12:52:57;;;;;;;10.38;7.78;;;21.40;99.90;;;;;;5072048;28;20492;-70
2022/09/12 12:55:28;;;;;;;14.00;9.40;;;21.20;99.90;;;;;;5071241;28;20049;-71
2022/09/12 12:57:58;;;;;;;13.40;9.18;;;21.20;99.90;;;;;;5073095;28;20106;-70
2022/09/12 13:00:27;;;;;;;14.00;9.55;;;21.30;99.90;;;;;;5075296;28;20040;-70
2022/09/12 13:02:58;;;;;;;12.45;8.63;;;21.40;99.90;;;;;;5072724;28;20048;-70
2022/09/12 13:05:26;;;;;;;12.98;8.95;;;21.20;99.90;;;;;;5075093;28;20052;-71
2022/09/12 13:08:18;;;;;;;11.32;8.23;;;21.50;99.90;;;;;;5071359;28;20056;-71